sensor_id;sensor_type;location;lat;lon;timestamp;pressure;altitude;pressure_sealevel;temperature;humidity
79584;BME280;69053;57.338;18.700;2023-04-09T00:01:35;102938.63;;;-1.01;75.57
79584;BME280;69053;57.338;18.700;2023-04-09T00:06:35;102945.88;;;-1.03;75.58
79584;BME280;69053;57.338;18.700;2023-04-09T00:11:36;102936.19;;;-1.05;75.61
79584;BME280;69053;57.338;18.700;2023-04-09T00:16:36;102931.72;;;-1.05;75.10
79584;BME280;69053;57.338;18.700;2023-04-09T00:21:37;102939.75;;;-1.05;75.07
79584;BME280;69053;57.338;18.700;2023-04-09T00:26:37;102922.03;;;-1.07;75.76
79584;BME280;69053;57.338;18.700;2023-04-09T00:31:38;102918.59;;;-1.09;75.50
79584;BME280;69053;57.338;18.700;2023-04-09T00:36:38;102918.84;;;-1.14;75.86
79584;BME280;69053;57.338;18.700;2023-04-09T00:41:39;102914.78;;;-1.21;76.56
79584;BME280;69053;57.338;18.700;2023-04-09T00:46:39;102911.59;;;-1.28;76.46
79584;BME280;69053;57.338;18.700;2023-04-09T00:51:40;102921.66;;;-1.33;76.96
79584;BME280;69053;57.338;18.700;2023-04-09T00:56:41;102921.06;;;-1.38;77.08
79584;BME280;69053;57.338;18.700;2023-04-09T01:01:43;102911.41;;;-1.41;77.65
79584;BME280;69053;57.338;18.700;2023-04-09T01:06:50;102908.66;;;-1.39;77.69
79584;BME280;69053;57.338;18.700;2023-04-09T01:12:04;102912.25;;;-1.40;77.67
79584;BME280;69053;57.338;18.700;2023-04-09T01:17:15;102912.19;;;-1.39;77.73
79584;BME280;69053;57.338;18.700;2023-04-09T01:22:31;102906.22;;;-1.44;77.81
79584;BME280;69053;57.338;18.700;2023-04-09T01:27:53;102911.66;;;-1.45;77.96
79584;BME280;69053;57.338;18.700;2023-04-09T01:32:57;102919.50;;;-1.42;77.95
79584;BME280;69053;57.338;18.700;2023-04-09T01:37:59;102916.69;;;-1.39;78.38
79584;BME280;69053;57.338;18.700;2023-04-09T01:43:00;102903.31;;;-1.39;78.56
79584;BME280;69053;57.338;18.700;2023-04-09T01:48:02;102908.38;;;-1.35;78.56
79584;BME280;69053;57.338;18.700;2023-04-09T01:53:04;102919.00;;;-1.33;78.44
79584;BME280;69053;57.338;18.700;2023-04-09T01:58:05;102905.72;;;-1.35;78.26
79584;BME280;69053;57.338;18.700;2023-04-09T02:03:10;102906.75;;;-1.37;78.38
79584;BME280;69053;57.338;18.700;2023-04-09T02:08:18;102906.16;;;-1.42;78.48
79584;BME280;69053;57.338;18.700;2023-04-09T02:13:21;102906.53;;;-1.50;78.71
79584;BME280;69053;57.338;18.700;2023-04-09T02:18:24;102909.31;;;-1.52;78.77
79584;BME280;69053;57.338;18.700;2023-04-09T02:23:27;102910.44;;;-1.56;79.00
79584;BME280;69053;57.338;18.700;2023-04-09T02:28:28;102908.75;;;-1.58;78.75
79584;BME280;69053;57.338;18.700;2023-04-09T02:33:28;102919.81;;;-1.64;79.09
79584;BME280;69053;57.338;18.700;2023-04-09T02:38:29;102915.53;;;-1.68;78.88
79584;BME280;69053;57.338;18.700;2023-04-09T02:43:30;102915.53;;;-1.68;79.42
79584;BME280;69053;57.338;18.700;2023-04-09T02:48:30;102916.44;;;-1.68;79.78
79584;BME280;69053;57.338;18.700;2023-04-09T02:53:31;102914.47;;;-1.64;79.65
79584;BME280;69053;57.338;18.700;2023-04-09T02:58:31;102915.38;;;-1.65;79.67
79584;BME280;69053;57.338;18.700;2023-04-09T03:03:32;102911.88;;;-1.66;79.89
79584;BME280;69053;57.338;18.700;2023-04-09T03:08:32;102914.47;;;-1.64;79.84
79584;BME280;69053;57.338;18.700;2023-04-09T03:13:33;102912.72;;;-1.65;79.85
79584;BME280;69053;57.338;18.700;2023-04-09T03:18:33;102915.31;;;-1.64;80.05
79584;BME280;69053;57.338;18.700;2023-04-09T03:23:34;102905.59;;;-1.65;79.88
79584;BME280;69053;57.338;18.700;2023-04-09T03:28:35;102915.31;;;-1.64;80.19
79584;BME280;69053;57.338;18.700;2023-04-09T03:33:35;102906.38;;;-1.63;80.53
79584;BME280;69053;57.338;18.700;2023-04-09T03:38:36;102905.47;;;-1.63;80.32
79584;BME280;69053;57.338;18.700;2023-04-09T03:43:36;102911.72;;;-1.63;80.54
79584;BME280;69053;57.338;18.700;2023-04-09T03:48:37;102905.41;;;-1.62;80.34
79584;BME280;69053;57.338;18.700;2023-04-09T03:53:38;102913.19;;;-1.57;81.28
79584;BME280;69053;57.338;18.700;2023-04-09T03:58:38;102912.06;;;-1.53;80.89
79584;BME280;69053;57.338;18.700;2023-04-09T04:03:39;102909.22;;;-1.50;81.05
79584;BME280;69053;57.338;18.700;2023-04-09T04:08:39;102917.16;;;-1.48;81.28
79584;BME280;69053;57.338;18.700;2023-04-09T04:13:40;102918.91;;;-1.47;81.18
79584;BME280;69053;57.338;18.700;2023-04-09T04:18:41;102912.34;;;-1.42;81.81
79584;BME280;69053;57.338;18.700;2023-04-09T04:23:41;102907.78;;;-1.40;81.27
79584;BME280;69053;57.338;18.700;2023-04-09T04:28:42;102911.06;;;-1.35;82.02
79584;BME280;69053;57.338;18.700;2023-04-09T04:33:42;102902.78;;;-1.30;81.95
79584;BME280;69053;57.338;18.700;2023-04-09T04:38:43;102908.84;;;-1.26;82.04
79584;BME280;69053;57.338;18.700;2023-04-09T04:43:45;102900.38;;;-1.19;82.32
79584;BME280;69053;57.338;18.700;2023-04-09T04:48:46;102918.44;;;-1.06;81.86
79584;BME280;69053;57.338;18.700;2023-04-09T04:53:47;102907.81;;;-0.92;82.50
79584;BME280;69053;57.338;18.700;2023-04-09T04:58:47;102917.38;;;-0.72;81.80
79584;BME280;69053;57.338;18.700;2023-04-09T05:03:48;102921.16;;;-0.60;81.88
79584;BME280;69053;57.338;18.700;2023-04-09T05:08:48;102920.28;;;-0.45;81.39
79584;BME280;69053;57.338;18.700;2023-04-09T05:13:49;102924.31;;;-0.38;81.25
79584;BME280;69053;57.338;18.700;2023-04-09T05:18:49;102928.19;;;-0.27;81.30
79584;BME280;69053;57.338;18.700;2023-04-09T05:23:50;102930.25;;;-0.02;81.20
79584;BME280;69053;57.338;18.700;2023-04-09T05:28:50;102925.78;;;0.27;80.31
79584;BME280;69053;57.338;18.700;2023-04-09T05:33:51;102918.84;;;0.53;79.60
79584;BME280;69053;57.338;18.700;2023-04-09T05:38:52;102922.06;;;0.73;78.87
79584;BME280;69053;57.338;18.700;2023-04-09T05:43:52;102918.31;;;0.90;78.08
79584;BME280;69053;57.338;18.700;2023-04-09T05:48:53;102922.03;;;1.02;77.61
79584;BME280;69053;57.338;18.700;2023-04-09T05:53:53;102925.78;;;1.26;77.05
79584;BME280;69053;57.338;18.700;2023-04-09T05:58:54;102930.09;;;1.56;76.07
79584;BME280;69053;57.338;18.700;2023-04-09T06:03:54;102925.88;;;1.79;75.00
79584;BME280;69053;57.338;18.700;2023-04-09T06:08:55;102925.16;;;2.03;74.89
79584;BME280;69053;57.338;18.700;2023-04-09T06:13:55;102924.94;;;2.32;73.70
79584;BME280;69053;57.338;18.700;2023-04-09T06:18:56;102924.19;;;2.55;72.92
79584;BME280;69053;57.338;18.700;2023-04-09T06:23:56;102931.13;;;2.84;72.16
79584;BME280;69053;57.338;18.700;2023-04-09T06:28:57;102936.25;;;3.12;70.93
79584;BME280;69053;57.338;18.700;2023-04-09T06:33:58;102940.47;;;3.41;69.91
79584;BME280;69053;57.338;18.700;2023-04-09T06:38:58;102946.97;;;3.73;68.41
79584;BME280;69053;57.338;18.700;2023-04-09T06:44:08;102951.47;;;3.97;67.62
79584;BME280;69053;57.338;18.700;2023-04-09T06:49:20;102950.81;;;4.29;66.11
79584;BME280;69053;57.338;18.700;2023-04-09T07:11:51;102949.75;;;4.99;61.92
79584;BME280;69053;57.338;18.700;2023-04-09T07:16:52;102951.94;;;5.17;60.75
79584;BME280;69053;57.338;18.700;2023-04-09T07:21:55;102951.09;;;5.16;60.55
79584;BME280;69053;57.338;18.700;2023-04-09T07:26:56;102955.72;;;5.37;59.97
79584;BME280;69053;57.338;18.700;2023-04-09T07:31:57;102944.50;;;5.74;58.46
79584;BME280;69053;57.338;18.700;2023-04-09T07:37:00;102957.66;;;6.11;58.13
79584;BME280;69053;57.338;18.700;2023-04-09T07:42:04;102945.06;;;6.21;56.05
79584;BME280;69053;57.338;18.700;2023-04-09T07:47:06;102936.59;;;6.35;55.54
79584;BME280;69053;57.338;18.700;2023-04-09T07:52:07;102942.31;;;6.42;55.52
79584;BME280;69053;57.338;18.700;2023-04-09T07:57:08;102944.50;;;6.48;55.23
79584;BME280;69053;57.338;18.700;2023-04-09T08:02:08;102953.25;;;6.62;55.02
79584;BME280;69053;57.338;18.700;2023-04-09T08:07:09;102953.47;;;6.80;54.52
79584;BME280;69053;57.338;18.700;2023-04-09T08:12:10;102956.25;;;6.99;54.53
79584;BME280;69053;57.338;18.700;2023-04-09T08:17:11;102971.75;;;6.87;53.53
79584;BME280;69053;57.338;18.700;2023-04-09T08:22:11;102955.22;;;6.90;53.53
79584;BME280;69053;57.338;18.700;2023-04-09T08:27:12;102951.28;;;6.94;53.10
79584;BME280;69053;57.338;18.700;2023-04-09T08:32:13;102949.75;;;7.21;52.89
79584;BME280;69053;57.338;18.700;2023-04-09T08:37:14;102946.25;;;7.69;52.60
79584;BME280;69053;57.338;18.700;2023-04-09T08:42:15;102945.94;;;8.21;50.65
79584;BME280;69053;57.338;18.700;2023-04-09T08:47:17;102935.41;;;8.66;50.03
79584;BME280;69053;57.338;18.700;2023-04-09T08:52:29;102941.81;;;9.02;49.41
79584;BME280;69053;57.338;18.700;2023-04-09T08:57:53;102942.88;;;9.19;47.96
79584;BME280;69053;57.338;18.700;2023-04-09T09:03:14;102946.69;;;9.26;48.39
79584;BME280;69053;57.338;18.700;2023-04-09T09:08:27;102946.63;;;9.18;47.44
79584;BME280;69053;57.338;18.700;2023-04-09T09:13:59;102946.63;;;9.18;48.12
79584;BME280;69053;57.338;18.700;2023-04-09T09:19:01;102952.47;;;9.41;47.63
79584;BME280;69053;57.338;18.700;2023-04-09T09:24:15;102945.72;;;9.63;47.79
79584;BME280;69053;57.338;18.700;2023-04-09T09:29:19;102946.78;;;9.34;47.89
79584;BME280;69053;57.338;18.700;2023-04-09T09:34:21;102939.31;;;9.36;46.06
79584;BME280;69053;57.338;18.700;2023-04-09T09:39:22;102949.53;;;9.52;47.15
79584;BME280;69053;57.338;18.700;2023-04-09T09:44:32;102946.09;;;9.86;45.17
79584;BME280;69053;57.338;18.700;2023-04-09T09:49:33;102941.91;;;9.92;44.27
79584;BME280;69053;57.338;18.700;2023-04-09T09:54:39;102941.03;;;10.09;44.81
79584;BME280;69053;57.338;18.700;2023-04-09T09:59:46;102938.13;;;10.55;45.44
79584;BME280;69053;57.338;18.700;2023-04-09T10:04:52;102939.03;;;10.64;42.90
79584;BME280;69053;57.338;18.700;2023-04-09T10:09:55;102935.47;;;10.19;42.70
79584;BME280;69053;57.338;18.700;2023-04-09T10:14:56;102933.91;;;10.35;42.96
79584;BME280;69053;57.338;18.700;2023-04-09T10:20:09;102943.09;;;10.60;43.12
79584;BME280;69053;57.338;18.700;2023-04-09T10:25:11;102936.28;;;10.98;42.37
79584;BME280;69053;57.338;18.700;2023-04-09T10:30:31;102937.00;;;11.00;41.83
79584;BME280;69053;57.338;18.700;2023-04-09T10:35:35;102926.84;;;10.84;41.70
79584;BME280;69053;57.338;18.700;2023-04-09T10:40:49;102925.53;;;10.88;41.42
79584;BME280;69053;57.338;18.700;2023-04-09T10:45:50;102929.31;;;10.96;41.24
79584;BME280;69053;57.338;18.700;2023-04-09T10:50:54;102920.50;;;11.18;40.09
79584;BME280;69053;57.338;18.700;2023-04-09T10:55:54;102933.13;;;11.19;39.99
79584;BME280;69053;57.338;18.700;2023-04-09T11:01:00;102929.69;;;11.17;39.44
79584;BME280;69053;57.338;18.700;2023-04-09T11:06:08;102933.38;;;10.92;39.22
79584;BME280;69053;57.338;18.700;2023-04-09T11:11:10;102933.63;;;11.15;39.49
79584;BME280;69053;57.338;18.700;2023-04-09T11:16:12;102928.94;;;11.58;39.48
79584;BME280;69053;57.338;18.700;2023-04-09T11:21:13;102934.78;;;11.71;39.23
79584;BME280;69053;57.338;18.700;2023-04-09T11:26:13;102934.25;;;11.59;37.56
79584;BME280;69053;57.338;18.700;2023-04-09T11:31:15;102945.13;;;11.43;38.13
79584;BME280;69053;57.338;18.700;2023-04-09T11:36:16;102930.25;;;11.29;37.97
79584;BME280;69053;57.338;18.700;2023-04-09T11:41:17;102933.13;;;11.19;37.20
79584;BME280;69053;57.338;18.700;2023-04-09T12:15:52;102927.53;;;11.29;38.42
79584;BME280;69053;57.338;18.700;2023-04-09T12:20:56;102927.94;;;11.59;38.36
79584;BME280;69053;57.338;18.700;2023-04-09T12:25:56;102929.84;;;11.83;38.33
79584;BME280;69053;57.338;18.700;2023-04-09T12:31:10;102930.72;;;12.00;38.17
79584;BME280;69053;57.338;18.700;2023-04-09T12:36:14;102928.13;;;12.07;37.68
79584;BME280;69053;57.338;18.700;2023-04-09T12:41:16;102931.53;;;11.84;36.44
79584;BME280;69053;57.338;18.700;2023-04-09T12:46:18;102921.47;;;11.85;37.94
79584;BME280;69053;57.338;18.700;2023-04-09T12:51:21;102925.44;;;11.98;36.91
79584;BME280;69053;57.338;18.700;2023-04-09T12:56:27;102918.38;;;11.71;37.55
79584;BME280;69053;57.338;18.700;2023-04-09T13:01:28;102925.03;;;11.77;36.59
79584;BME280;69053;57.338;18.700;2023-04-09T13:07:15;102922.28;;;11.69;36.62
79584;BME280;69053;57.338;18.700;2023-04-09T13:12:37;102910.69;;;11.67;37.82
79584;BME280;69053;57.338;18.700;2023-04-09T13:18:13;102913.59;;;11.65;37.36
79584;BME280;69053;57.338;18.700;2023-04-09T13:23:15;102913.94;;;11.54;37.12
79584;BME280;69053;57.338;18.700;2023-04-09T13:33:58;102913.56;;;11.40;37.59
79584;BME280;69053;57.338;18.700;2023-04-09T13:38:59;102917.44;;;11.21;37.54
79584;BME280;69053;57.338;18.700;2023-04-09T13:44:07;102908.28;;;11.39;38.08
79584;BME280;69053;57.338;18.700;2023-04-09T13:49:10;102907.59;;;11.53;37.29
79584;BME280;69053;57.338;18.700;2023-04-09T13:54:10;102907.34;;;11.14;38.02
79584;BME280;69053;57.338;18.700;2023-04-09T13:59:29;102905.72;;;11.37;38.82
79584;BME280;69053;57.338;18.700;2023-04-09T14:04:44;102897.91;;;11.51;39.00
79584;BME280;69053;57.338;18.700;2023-04-09T14:09:45;102887.66;;;11.53;38.40
79584;BME280;69053;57.338;18.700;2023-04-09T14:14:46;102895.19;;;11.83;38.63
79584;BME280;69053;57.338;18.700;2023-04-09T14:19:50;102898.91;;;11.82;38.35
79584;BME280;69053;57.338;18.700;2023-04-09T14:31:05;102888.53;;;11.94;38.43
79584;BME280;69053;57.338;18.700;2023-04-09T14:36:11;102891.22;;;11.86;38.12
79584;BME280;69053;57.338;18.700;2023-04-09T14:41:11;102893.28;;;11.51;38.38
79584;BME280;69053;57.338;18.700;2023-04-09T14:46:12;102885.63;;;10.87;39.48
79584;BME280;69053;57.338;18.700;2023-04-09T14:51:22;102889.94;;;10.56;39.12
79584;BME280;69053;57.338;18.700;2023-04-09T14:56:59;102879.53;;;10.25;39.93
79584;BME280;69053;57.338;18.700;2023-04-09T15:02:28;102879.78;;;10.40;39.49
79584;BME280;69053;57.338;18.700;2023-04-09T15:07:52;102876.06;;;10.41;39.36
79584;BME280;69053;57.338;18.700;2023-04-09T15:13:46;102869.00;;;10.56;39.81
79584;BME280;69053;57.338;18.700;2023-04-09T15:19:22;102862.44;;;10.41;39.91
79584;BME280;69053;57.338;18.700;2023-04-09T15:24:36;102870.81;;;10.47;40.04
79584;BME280;69053;57.338;18.700;2023-04-09T15:29:56;102862.59;;;10.39;40.11
79584;BME280;69053;57.338;18.700;2023-04-09T15:35:39;102867.69;;;10.34;41.19
79584;BME280;69053;57.338;18.700;2023-04-09T15:40:51;102864.31;;;10.75;40.97
79584;BME280;69053;57.338;18.700;2023-04-09T15:46:13;102865.22;;;10.92;40.84
79584;BME280;69053;57.338;18.700;2023-04-09T15:51:27;102876.13;;;11.00;39.70
79584;BME280;69053;57.338;18.700;2023-04-09T15:56:27;102874.75;;;10.27;40.20
79584;BME280;69053;57.338;18.700;2023-04-09T16:01:30;102873.50;;;9.95;41.06
79584;BME280;69053;57.338;18.700;2023-04-09T16:06:31;102879.69;;;9.97;40.75
79584;BME280;69053;57.338;18.700;2023-04-09T16:11:31;102883.38;;;9.70;41.24
79584;BME280;69053;57.338;18.700;2023-04-09T16:16:35;102884.63;;;9.39;41.47
79584;BME280;69053;57.338;18.700;2023-04-09T17:41:47;102910.00;;;4.79;58.45
79584;BME280;69053;57.338;18.700;2023-04-09T17:46:55;102918.34;;;4.53;59.22
79584;BME280;69053;57.338;18.700;2023-04-09T17:51:55;102929.47;;;4.26;60.11
79584;BME280;69053;57.338;18.700;2023-04-09T17:56:56;102933.22;;;4.01;61.99
79584;BME280;69053;57.338;18.700;2023-04-09T18:02:00;102931.31;;;3.79;63.81
79584;BME280;69053;57.338;18.700;2023-04-09T18:07:04;102935.91;;;3.65;64.23
79584;BME280;69053;57.338;18.700;2023-04-09T18:12:28;102932.13;;;3.44;65.67
79584;BME280;69053;57.338;18.700;2023-04-09T18:17:52;102936.84;;;3.29;66.21
79584;BME280;69053;57.338;18.700;2023-04-09T18:22:58;102946.38;;;3.09;67.90
79584;BME280;69053;57.338;18.700;2023-04-09T18:28:01;102949.75;;;2.99;67.92
79584;BME280;69053;57.338;18.700;2023-04-09T18:33:01;102950.41;;;2.90;68.11
79584;BME280;69053;57.338;18.700;2023-04-09T18:38:02;102963.88;;;2.77;68.75
79584;BME280;69053;57.338;18.700;2023-04-09T18:43:16;102962.81;;;2.67;69.26
79584;BME280;69053;57.338;18.700;2023-04-09T18:48:17;102966.28;;;2.56;69.85
79584;BME280;69053;57.338;18.700;2023-04-09T18:53:18;102966.25;;;2.43;71.13
79584;BME280;69053;57.338;18.700;2023-04-09T18:58:19;102960.91;;;2.31;72.06
79584;BME280;69053;57.338;18.700;2023-04-09T19:03:19;102956.88;;;2.23;71.77
79584;BME280;69053;57.338;18.700;2023-04-09T19:08:20;102959.25;;;2.15;71.95
79584;BME280;69053;57.338;18.700;2023-04-09T19:13:21;102956.97;;;2.09;72.35
79584;BME280;69053;57.338;18.700;2023-04-09T19:18:22;102959.44;;;1.99;73.14
79584;BME280;69053;57.338;18.700;2023-04-09T19:23:29;102963.50;;;1.92;73.79
79584;BME280;69053;57.338;18.700;2023-04-09T19:28:32;102963.38;;;1.81;73.88
79584;BME280;69053;57.338;18.700;2023-04-09T19:33:33;102971.38;;;1.68;73.90
79584;BME280;69053;57.338;18.700;2023-04-09T19:39:03;102968.69;;;1.55;73.41
79584;BME280;69053;57.338;18.700;2023-04-09T19:44:06;102967.09;;;1.38;73.52
79584;BME280;69053;57.338;18.700;2023-04-09T19:49:08;102971.63;;;1.23;73.76
79584;BME280;69053;57.338;18.700;2023-04-09T19:54:08;102966.50;;;1.06;73.78
79584;BME280;69053;57.338;18.700;2023-04-09T19:59:17;102966.63;;;0.90;74.33
79584;BME280;69053;57.338;18.700;2023-04-09T20:04:19;102958.69;;;0.74;75.05
79584;BME280;69053;57.338;18.700;2023-04-09T20:09:23;102968.63;;;0.58;77.03
79584;BME280;69053;57.338;18.700;2023-04-09T20:14:31;102967.56;;;0.46;77.14
79584;BME280;69053;57.338;18.700;2023-04-09T20:19:32;102963.44;;;0.40;77.05
79584;BME280;69053;57.338;18.700;2023-04-09T20:24:32;102968.31;;;0.33;76.39
79584;BME280;69053;57.338;18.700;2023-04-09T20:29:34;102969.25;;;0.18;76.76
79584;BME280;69053;57.338;18.700;2023-04-09T20:34:35;102968.72;;;-0.03;77.20
79584;BME280;69053;57.338;18.700;2023-04-09T20:39:36;102966.94;;;-0.18;76.70
79584;BME280;69053;57.338;18.700;2023-04-09T20:44:36;102968.53;;;-0.30;76.99
79584;BME280;69053;57.338;18.700;2023-04-09T20:49:37;102965.25;;;-0.35;76.86
79584;BME280;69053;57.338;18.700;2023-04-09T20:54:37;102969.59;;;-0.49;76.45
79584;BME280;69053;57.338;18.700;2023-04-09T20:59:38;102973.22;;;-0.66;76.93
79584;BME280;69053;57.338;18.700;2023-04-09T21:04:39;102968.66;;;-0.80;76.75
79584;BME280;69053;57.338;18.700;2023-04-09T21:09:39;102969.25;;;-0.90;77.09
79584;BME280;69053;57.338;18.700;2023-04-09T21:14:40;102964.06;;;-0.93;78.26
79584;BME280;69053;57.338;18.700;2023-04-09T21:19:41;102970.72;;;-1.01;77.31
79584;BME280;69053;57.338;18.700;2023-04-09T21:24:41;102958.81;;;-1.11;77.89
79584;BME280;69053;57.338;18.700;2023-04-09T21:29:42;102964.22;;;-1.13;78.87
79584;BME280;69053;57.338;18.700;2023-04-09T21:34:42;102964.31;;;-1.14;78.93
79584;BME280;69053;57.338;18.700;2023-04-09T21:39:43;102948.44;;;-1.17;79.08
79584;BME280;69053;57.338;18.700;2023-04-09T21:44:43;102941.28;;;-1.17;80.38
79584;BME280;69053;57.338;18.700;2023-04-09T21:49:44;102949.03;;;-1.12;80.75
79584;BME280;69053;57.338;18.700;2023-04-09T21:54:45;102935.59;;;-1.10;80.72
79584;BME280;69053;57.338;18.700;2023-04-09T21:59:46;102939.31;;;-1.13;80.77
79584;BME280;69053;57.338;18.700;2023-04-09T22:04:46;102930.84;;;-1.21;81.16
79584;BME280;69053;57.338;18.700;2023-04-09T22:09:47;102938.00;;;-1.22;81.77
79584;BME280;69053;57.338;18.700;2023-04-09T22:14:47;102928.09;;;-1.20;82.45
79584;BME280;69053;57.338;18.700;2023-04-09T22:19:48;102929.78;;;-1.19;82.79
79584;BME280;69053;57.338;18.700;2023-04-09T22:24:50;102938.69;;;-1.18;82.71
79584;BME280;69053;57.338;18.700;2023-04-09T22:29:50;102935.25;;;-1.20;82.98
79584;BME280;69053;57.338;18.700;2023-04-09T22:34:51;102931.69;;;-1.21;83.23
79584;BME280;69053;57.338;18.700;2023-04-09T22:39:52;102938.94;;;-1.23;83.60
79584;BME280;69053;57.338;18.700;2023-04-09T22:44:53;102933.91;;;-1.29;83.42
79584;BME280;69053;57.338;18.700;2023-04-09T22:49:53;102932.22;;;-1.30;83.82
79584;BME280;69053;57.338;18.700;2023-04-09T22:54:54;102926.94;;;-1.32;83.97
79584;BME280;69053;57.338;18.700;2023-04-09T22:59:55;102931.44;;;-1.32;84.33
79584;BME280;69053;57.338;18.700;2023-04-09T23:04:55;102926.41;;;-1.38;84.61
79584;BME280;69053;57.338;18.700;2023-04-09T23:09:56;102934.78;;;-1.44;84.75
79584;BME280;69053;57.338;18.700;2023-04-09T23:14:56;102921.66;;;-1.49;84.69
79584;BME280;69053;57.338;18.700;2023-04-09T23:19:57;102924.31;;;-1.49;84.62
79584;BME280;69053;57.338;18.700;2023-04-09T23:24:57;102931.56;;;-1.51;84.49
79584;BME280;69053;57.338;18.700;2023-04-09T23:29:58;102933.56;;;-1.55;84.25
79584;BME280;69053;57.338;18.700;2023-04-09T23:34:59;102932.94;;;-1.60;83.92
79584;BME280;69053;57.338;18.700;2023-04-09T23:40:03;102928.84;;;-1.67;83.83
79584;BME280;69053;57.338;18.700;2023-04-09T23:45:06;102932.53;;;-1.70;83.47
79584;BME280;69053;57.338;18.700;2023-04-09T23:50:07;102932.47;;;-1.68;83.85
79584;BME280;69053;57.338;18.700;2023-04-09T23:55:08;102937.72;;;-1.66;83.64
